Time;durP1;ratioP1;P1;durP2;ratioP2;P2;SDS_P1;SDS_P2;PMS_P1;PMS_P2;Temp;Humidity;BMP_temperature;BMP_pressure;BME280_temperature;BME280_humidity;BME280_pressure;Samples;Min_cycle;Max_cycle;Signal;HPM_P1;HPM_P2
2022/01/27 00:05:39;;;;;;;33.60;19.83;;;5.60;99.90;;;;;;5113946;28;20040;-66
2022/01/27 00:08:15;;;;;;;32.80;20.40;;;5.60;99.90;;;;;;5114372;28;20063;-64
2022/01/27 00:10:52;;;;;;;34.90;20.80;;;5.50;99.90;;;;;;5113697;28;20476;-64
2022/01/27 00:13:24;;;;;;;35.70;19.58;;;5.60;99.90;;;;;;5116073;28;20054;-65
2022/01/27 00:15:59;;;;;;;35.10;20.05;;;5.60;99.90;;;;;;5134315;28;20043;-65
2022/01/27 00:18:25;;;;;;;36.22;20.55;;;5.60;99.90;;;;;;5133894;28;20087;-64
2022/01/27 00:20:50;;;;;;;35.75;21.13;;;5.60;99.90;;;;;;5134310;28;20444;-64
2022/01/27 00:23:19;;;;;;;35.50;20.75;;;5.60;99.90;;;;;;5132398;28;20035;-64
2022/01/27 00:25:44;;;;;;;33.70;20.13;;;5.60;99.90;;;;;;5114177;28;20027;-65
2022/01/27 00:28:10;;;;;;;32.58;17.77;;;5.60;99.90;;;;;;5113896;28;20444;-63
2022/01/27 00:30:38;;;;;;;34.53;19.73;;;5.60;99.90;;;;;;5095817;28;20097;-64
2022/01/27 00:33:04;;;;;;;31.52;19.02;;;5.50;99.90;;;;;;5114097;28;20745;-63
2022/01/27 00:35:32;;;;;;;30.52;18.52;;;5.60;99.90;;;;;;5133931;28;20099;-64
2022/01/27 00:37:58;;;;;;;32.15;18.90;;;5.70;99.90;;;;;;5116441;28;20463;-63
2022/01/27 00:40:24;;;;;;;33.72;18.73;;;5.70;99.90;;;;;;5133746;28;20127;-63
2022/01/27 00:42:50;;;;;;;33.65;18.48;;;5.70;99.90;;;;;;5134302;28;20130;-64
2022/01/27 00:45:16;;;;;;;31.70;17.52;;;5.80;99.90;;;;;;5097977;28;20043;-64
2022/01/27 00:47:42;;;;;;;31.92;19.35;;;5.80;99.90;;;;;;5095480;28;20133;-64
2022/01/27 00:50:09;;;;;;;32.78;18.40;;;5.80;99.90;;;;;;5113099;28;20044;-64
2022/01/27 00:52:40;;;;;;;32.10;17.95;;;5.90;99.90;;;;;;5113518;28;20043;-64
2022/01/27 00:55:07;;;;;;;30.17;17.20;;;5.90;99.90;;;;;;5130085;28;20332;-63
2022/01/27 00:57:59;;;;;;;31.27;17.23;;;5.90;99.90;;;;;;5134097;28;20039;-64
2022/01/27 01:00:28;;;;;;;30.98;18.02;;;6.00;99.90;;;;;;5132768;28;20058;-63
2022/01/27 01:03:04;;;;;;;32.20;17.60;;;5.90;99.90;;;;;;5133895;28;20114;-64
2022/01/27 01:08:10;;;;;;;31.08;17.25;;;5.80;99.90;;;;;;5113417;28;20338;-63
2022/01/27 01:14:18;;;;;;;28.52;17.38;;;5.80;99.90;;;;;;5115026;28;20153;-64
2022/01/27 01:16:26;;;;;;;30.52;17.45;;;5.80;99.90;;;;;;5133693;28;20579;-64
2022/01/27 01:19:03;;;;;;;28.10;18.30;;;5.80;99.90;;;;;;5133611;28;20063;-63
2022/01/27 01:32:06;;;;;;;30.80;17.77;;;5.80;99.90;;;;;;5116857;28;20055;-63
2022/01/27 01:34:33;;;;;;;32.17;17.83;;;5.60;99.90;;;;;;5128532;27;20049;-64
2022/01/27 01:37:07;;;;;;;29.23;17.58;;;5.70;99.90;;;;;;5137300;27;20079;-63
2022/01/27 01:39:35;;;;;;;30.65;18.23;;;5.80;99.90;;;;;;5136722;27;20462;-64
2022/01/27 01:42:06;;;;;;;32.50;19.17;;;5.80;99.90;;;;;;5137230;27;20047;-63
2022/01/27 01:44:32;;;;;;;29.23;17.92;;;5.70;99.90;;;;;;5125322;27;20471;-64
2022/01/27 01:46:58;;;;;;;32.33;19.05;;;5.70;99.90;;;;;;5116526;28;20044;-63
2022/01/27 01:49:26;;;;;;;30.88;18.15;;;5.80;99.90;;;;;;5098375;28;20039;-63
2022/01/27 01:51:57;;;;;;;31.80;18.05;;;5.70;99.90;;;;;;5116728;28;20376;-63
2022/01/27 01:54:23;;;;;;;34.60;18.88;;;5.70;99.90;;;;;;5126584;27;20039;-63
2022/01/27 01:56:48;;;;;;;32.22;18.60;;;5.70;99.90;;;;;;5137295;27;20042;-64
2022/01/27 01:59:14;;;;;;;37.63;19.02;;;5.70;99.90;;;;;;5136793;27;20115;-64
2022/01/27 02:01:41;;;;;;;34.05;19.02;;;5.70;99.90;;;;;;5136658;27;20039;-64
2022/01/27 02:04:09;;;;;;;35.95;19.63;;;5.70;99.90;;;;;;5128922;27;20031;-63
2022/01/27 02:06:47;;;;;;;36.33;20.02;;;5.80;99.90;;;;;;5116371;28;20048;-64
2022/01/27 02:09:48;;;;;;;35.00;21.00;;;5.80;99.90;;;;;;5115787;28;20345;-63
2022/01/27 02:18:07;;;;;;;33.22;20.00;;;5.60;99.90;;;;;;5136566;27;20047;-63
2022/01/27 02:20:35;;;;;;;35.05;20.10;;;5.60;99.90;;;;;;5136390;27;20043;-63
2022/01/27 02:23:04;;;;;;;39.63;20.40;;;5.60;99.90;;;;;;5118493;27;20051;-63
2022/01/27 02:25:29;;;;;;;35.20;21.48;;;5.50;99.90;;;;;;5116856;27;20087;-63
2022/01/27 02:27:56;;;;;;;42.63;21.50;;;5.50;99.90;;;;;;5115826;28;20036;-63
2022/01/27 02:30:24;;;;;;;31.42;20.40;;;5.50;99.90;;;;;;5115045;28;20058;-63
2022/01/27 02:32:52;;;;;;;37.40;20.42;;;5.50;99.90;;;;;;5115459;28;20444;-63
2022/01/27 02:35:24;;;;;;;34.63;21.35;;;5.50;99.90;;;;;;5132086;27;20067;-64
2022/01/27 02:37:50;;;;;;;34.50;19.63;;;5.40;99.90;;;;;;5136438;27;20363;-64
2022/01/27 02:40:26;;;;;;;36.67;21.05;;;5.40;99.90;;;;;;5136101;27;20054;-65
2022/01/27 02:42:52;;;;;;;34.83;20.15;;;5.40;99.90;;;;;;5136235;27;20038;-63
2022/01/27 02:45:32;;;;;;;31.77;20.50;;;5.40;99.90;;;;;;5118236;27;20043;-64
2022/01/27 02:47:58;;;;;;;34.08;21.75;;;5.40;99.90;;;;;;5115390;28;20046;-64
2022/01/27 02:50:23;;;;;;;38.30;22.35;;;5.50;99.90;;;;;;5115171;28;20464;-63
2022/01/27 02:52:49;;;;;;;37.10;21.30;;;5.40;99.90;;;;;;5115429;28;20047;-64
2022/01/27 02:55:15;;;;;;;35.85;19.77;;;5.40;99.90;;;;;;5114488;27;20070;-64
2022/01/27 02:57:41;;;;;;;32.83;20.38;;;5.40;99.90;;;;;;5117869;27;20124;-64
2022/01/27 03:00:07;;;;;;;38.25;20.00;;;5.40;99.90;;;;;;5135129;27;20337;-65
2022/01/27 03:02:35;;;;;;;34.47;20.40;;;5.40;99.90;;;;;;5135726;27;20125;-63
2022/01/27 03:05:00;;;;;;;35.05;19.20;;;5.50;99.90;;;;;;5102417;28;20055;-64
2022/01/27 03:07:26;;;;;;;36.55;19.88;;;5.50;99.90;;;;;;5115057;28;20406;-65
2022/01/27 03:09:54;;;;;;;40.88;20.95;;;5.60;99.90;;;;;;5114801;28;20074;-64
2022/01/27 03:12:23;;;;;;;33.85;19.83;;;5.50;99.90;;;;;;5114939;28;20046;-64
2022/01/27 03:14:49;;;;;;;34.80;20.55;;;5.50;99.90;;;;;;5127729;27;20054;-64
2022/01/27 03:17:15;;;;;;;35.33;20.35;;;5.60;99.90;;;;;;5135353;27;20050;-65
2022/01/27 03:19:41;;;;;;;38.05;21.00;;;5.60;99.90;;;;;;5135034;27;20424;-64
2022/01/27 03:22:08;;;;;;;35.72;20.08;;;5.60;99.90;;;;;;5135187;27;20047;-66
2022/01/27 03:24:35;;;;;;;35.05;21.45;;;5.60;99.90;;;;;;5124047;27;20032;-63
2022/01/27 03:27:01;;;;;;;33.70;20.33;;;5.60;99.90;;;;;;5114366;28;20047;-63
2022/01/27 03:29:28;;;;;;;34.33;20.00;;;5.70;99.90;;;;;;5114333;28;20405;-64
2022/01/27 03:31:54;;;;;;;35.92;20.33;;;5.70;99.90;;;;;;5114504;28;20082;-63
2022/01/27 03:34:20;;;;;;;37.90;20.83;;;5.70;99.90;;;;;;5123571;27;20030;-64
2022/01/27 03:36:46;;;;;;;35.65;20.17;;;5.70;99.90;;;;;;5134944;27;20485;-64
2022/01/27 03:39:14;;;;;;;36.53;20.00;;;5.70;99.90;;;;;;5134890;27;20119;-63
2022/01/27 03:41:46;;;;;;;34.55;20.10;;;5.70;99.90;;;;;;5135112;27;20401;-63
2022/01/27 03:44:12;;;;;;;32.17;19.75;;;5.70;99.90;;;;;;5108988;28;20132;-63
2022/01/27 03:46:38;;;;;;;36.70;21.10;;;5.80;99.90;;;;;;5079152;28;20067;-64
2022/01/27 03:49:03;;;;;;;35.00;20.52;;;5.70;99.90;;;;;;5095891;28;20537;-63
2022/01/27 03:51:29;;;;;;;31.23;19.00;;;5.70;99.90;;;;;;5114478;28;20046;-64
2022/01/27 03:53:54;;;;;;;35.33;19.52;;;5.70;99.90;;;;;;5119307;27;20399;-63
2022/01/27 03:56:20;;;;;;;35.80;20.15;;;5.70;99.90;;;;;;5134911;27;20043;-65
2022/01/27 03:58:46;;;;;;;37.67;19.02;;;5.70;99.90;;;;;;5134667;27;20074;-63
2022/01/27 04:01:11;;;;;;;33.42;19.88;;;5.80;99.90;;;;;;5116585;28;20130;-64
2022/01/27 04:03:38;;;;;;;34.22;18.35;;;5.80;99.90;;;;;;5131764;27;20473;-63
2022/01/27 04:06:08;;;;;;;37.72;20.98;;;5.80;99.90;;;;;;5113775;28;20124;-64
2022/01/27 04:08:37;;;;;;;34.05;20.00;;;5.80;99.90;;;;;;5113385;28;20460;-64
2022/01/27 04:11:08;;;;;;;35.40;20.40;;;5.80;99.90;;;;;;5095813;28;20357;-63
2022/01/27 04:13:34;;;;;;;35.10;19.08;;;5.80;99.90;;;;;;5115820;28;20047;-64
2022/01/27 04:15:59;;;;;;;39.90;20.77;;;5.80;99.90;;;;;;5134111;28;20104;-63
2022/01/27 04:18:25;;;;;;;35.25;20.67;;;5.90;99.90;;;;;;5098923;28;20051;-62
2022/01/27 04:20:51;;;;;;;35.50;20.20;;;5.90;99.90;;;;;;5134526;28;20047;-62
2022/01/27 04:23:18;;;;;;;32.83;19.92;;;5.90;99.90;;;;;;5134362;28;20045;-62
2022/01/27 04:25:47;;;;;;;41.83;20.27;;;5.80;99.90;;;;;;5116582;28;20031;-64
2022/01/27 04:28:18;;;;;;;32.53;18.55;;;5.90;99.90;;;;;;5134273;28;20089;-62
2022/01/27 04:30:44;;;;;;;33.20;19.48;;;5.90;99.90;;;;;;5116733;28;20355;-64
2022/01/27 04:33:09;;;;;;;30.95;17.17;;;6.00;99.90;;;;;;5134597;28;20039;-63
2022/01/27 04:35:41;;;;;;;39.53;19.63;;;6.00;99.90;;;;;;5114785;28;20180;-63
2022/01/27 04:40:48;;;;;;;38.22;20.23;;;5.90;99.90;;;;;;5113781;28;20131;-63
2022/01/27 04:48:42;;;;;;;;;;;5.90;99.90;;;;;;5089392;28;19919;-63
2022/01/27 04:51:11;;;;;;;37.00;20.08;;;6.00;99.90;;;;;;5113661;28;20609;-65
2022/01/27 04:53:47;;;;;;;40.10;19.08;;;6.00;99.90;;;;;;5115501;28;20048;-63
2022/01/27 04:56:15;;;;;;;33.65;19.25;;;6.00;99.90;;;;;;5134222;28;20121;-63
2022/01/27 04:58:44;;;;;;;34.42;19.83;;;6.00;99.90;;;;;;5118477;27;20050;-63
2022/01/27 05:01:09;;;;;;;38.15;20.25;;;6.00;99.90;;;;;;5137930;27;20105;-64
2022/01/27 05:06:03;;;;;;;35.22;19.50;;;5.90;99.90;;;;;;5117446;28;20050;-63
2022/01/27 05:08:29;;;;;;;34.78;20.40;;;6.00;99.90;;;;;;5117134;28;20040;-64
2022/01/27 05:11:21;;;;;;;36.58;19.52;;;5.90;99.90;;;;;;5117496;28;20047;-63
2022/01/27 05:14:26;;;;;;;37.90;19.08;;;5.90;99.90;;;;;;5119469;27;20042;-65
2022/01/27 05:16:32;;;;;;;30.45;18.52;;;6.00;99.90;;;;;;5126426;27;20058;-63
2022/01/27 05:18:58;;;;;;;33.15;18.52;;;6.00;99.90;;;;;;5137185;27;20130;-63
2022/01/27 05:21:25;;;;;;;32.17;17.70;;;6.00;99.90;;;;;;5137663;27;20121;-63
2022/01/27 05:23:51;;;;;;;35.72;17.17;;;6.00;99.90;;;;;;5136747;27;20122;-64
2022/01/27 05:26:17;;;;;;;28.88;17.85;;;6.10;99.90;;;;;;5137698;27;20511;-63
2022/01/27 05:28:42;;;;;;;36.85;18.30;;;6.00;99.90;;;;;;5137652;27;20067;-63
2022/01/27 05:31:08;;;;;;;32.55;18.00;;;6.00;99.90;;;;;;5137524;27;20394;-63
2022/01/27 05:33:34;;;;;;;33.55;17.80;;;6.00;99.90;;;;;;5135943;27;20035;-62
2022/01/27 05:36:00;;;;;;;34.03;17.90;;;6.10;99.90;;;;;;5116758;28;20040;-63
2022/01/27 05:38:26;;;;;;;33.50;17.80;;;6.10;99.90;;;;;;5116514;28;20044;-63
2022/01/27 05:40:51;;;;;;;30.88;15.45;;;6.20;99.90;;;;;;5116875;28;20039;-64
2022/01/27 05:43:17;;;;;;;34.28;17.70;;;6.20;99.90;;;;;;5117035;28;20067;-64
2022/01/27 05:45:43;;;;;;;29.85;16.35;;;6.10;99.90;;;;;;5136806;27;20052;-64
2022/01/27 05:48:08;;;;;;;27.65;15.05;;;6.20;99.90;;;;;;5136926;27;20759;-65
2022/01/27 05:50:34;;;;;;;33.58;18.02;;;6.20;99.90;;;;;;5132192;27;20372;-64
2022/01/27 05:53:00;;;;;;;31.83;17.83;;;6.20;99.90;;;;;;5133375;27;20039;-65
2022/01/27 05:55:26;;;;;;;35.75;18.23;;;6.20;99.90;;;;;;5134615;27;20031;-63
2022/01/27 05:57:52;;;;;;;35.40;19.27;;;6.10;99.90;;;;;;5115638;27;20031;-65
2022/01/27 06:00:18;;;;;;;32.67;16.70;;;6.10;99.90;;;;;;5116065;28;20439;-64
2022/01/27 06:02:44;;;;;;;31.17;17.95;;;6.00;99.90;;;;;;5080851;27;20044;-65
2022/01/27 06:05:10;;;;;;;37.85;19.45;;;6.00;99.90;;;;;;5117831;27;20038;-64
2022/01/27 06:07:36;;;;;;;41.05;19.38;;;6.00;99.90;;;;;;5082793;27;20410;-65
2022/01/27 06:10:02;;;;;;;36.42;17.42;;;5.90;99.90;;;;;;5114944;27;20470;-65
2022/01/27 06:12:28;;;;;;;41.65;20.05;;;5.80;99.90;;;;;;5118273;27;20103;-63
2022/01/27 06:14:54;;;;;;;40.85;20.27;;;5.90;99.90;;;;;;5135173;27;20043;-65
2022/01/27 06:17:20;;;;;;;38.42;18.92;;;5.90;99.90;;;;;;5116244;27;20043;-64
2022/01/27 06:19:46;;;;;;;47.20;20.23;;;5.80;99.90;;;;;;5121391;27;20087;-63
2022/01/27 06:22:13;;;;;;;39.35;18.67;;;5.80;99.90;;;;;;5118166;27;20177;-63
2022/01/27 06:24:43;;;;;;;40.22;19.92;;;5.80;99.90;;;;;;5135382;27;20058;-62
2022/01/27 06:27:10;;;;;;;45.35;21.75;;;5.80;99.90;;;;;;5136267;27;20043;-62
2022/01/27 06:29:36;;;;;;;44.22;21.73;;;5.80;99.90;;;;;;5136145;27;20114;-63
2022/01/27 06:32:03;;;;;;;41.88;19.38;;;5.70;99.90;;;;;;5135740;27;20508;-62
2022/01/27 06:34:29;;;;;;;44.92;21.80;;;5.70;99.90;;;;;;5135338;27;20037;-62
2022/01/27 06:36:54;;;;;;;49.20;21.98;;;5.70;99.90;;;;;;5136108;27;20057;-62
2022/01/27 06:39:20;;;;;;;47.30;20.63;;;5.60;99.90;;;;;;5100239;27;20118;-63
2022/01/27 06:41:47;;;;;;;47.53;21.58;;;5.60;99.90;;;;;;5135144;27;20035;-63
2022/01/27 06:44:12;;;;;;;48.00;22.38;;;5.70;99.90;;;;;;5135010;27;20035;-62
2022/01/27 06:46:38;;;;;;;44.15;19.63;;;5.70;99.90;;;;;;5117808;27;20743;-62
2022/01/27 06:49:04;;;;;;;46.53;21.58;;;5.70;99.90;;;;;;5135621;27;20517;-64
2022/01/27 06:51:31;;;;;;;58.90;22.42;;;5.70;99.90;;;;;;5135697;27;20039;-64
2022/01/27 06:53:58;;;;;;;47.65;21.38;;;5.60;99.90;;;;;;5134808;27;20050;-66
2022/01/27 06:56:24;;;;;;;47.63;22.00;;;5.70;99.90;;;;;;5117538;27;20471;-64
2022/01/27 06:58:50;;;;;;;40.40;18.73;;;5.60;99.90;;;;;;5117150;27;20140;-66
2022/01/27 07:01:16;;;;;;;39.47;20.60;;;5.60;99.90;;;;;;5135120;27;20052;-63
2022/01/27 07:03:41;;;;;;;46.75;22.48;;;5.70;99.90;;;;;;5116401;27;20035;-64
2022/01/27 07:06:07;;;;;;;49.38;23.08;;;5.80;99.90;;;;;;5116922;27;20070;-64
2022/01/27 07:08:33;;;;;;;54.53;23.48;;;5.80;99.90;;;;;;5116557;27;20448;-62
2022/01/27 07:10:58;;;;;;;46.63;22.15;;;5.70;99.90;;;;;;5098278;27;20062;-63
2022/01/27 07:13:24;;;;;;;49.13;22.58;;;5.80;99.90;;;;;;5134579;27;20046;-64
2022/01/27 07:15:50;;;;;;;47.97;22.92;;;5.80;99.90;;;;;;5114168;27;20047;-64
2022/01/27 07:18:16;;;;;;;48.63;23.35;;;5.70;99.90;;;;;;5113705;28;20059;-63
2022/01/27 07:20:42;;;;;;;48.10;22.48;;;5.70;99.90;;;;;;5113586;28;20138;-64
2022/01/27 07:23:08;;;;;;;49.38;21.85;;;5.70;99.90;;;;;;5114575;28;20484;-63
2022/01/27 07:25:34;;;;;;;41.42;20.58;;;5.70;99.90;;;;;;5131889;27;20050;-63
2022/01/27 07:28:00;;;;;;;51.47;22.13;;;5.80;99.90;;;;;;5117199;27;20035;-63
2022/01/27 07:30:26;;;;;;;47.08;21.65;;;5.90;99.90;;;;;;5135076;27;20074;-63
2022/01/27 07:32:51;;;;;;;40.90;17.85;;;5.90;99.90;;;;;;5116821;27;20074;-64
2022/01/27 07:35:17;;;;;;;40.58;20.02;;;6.00;99.90;;;;;;5102204;28;20032;-63
2022/01/27 07:37:44;;;;;;;37.05;18.40;;;6.00;99.90;;;;;;5114578;28;20461;-63
2022/01/27 07:40:11;;;;;;;50.92;20.63;;;6.10;99.90;;;;;;5114367;28;20047;-63
2022/01/27 07:42:36;;;;;;;43.20;19.02;;;6.20;99.90;;;;;;5115577;27;20365;-62
2022/01/27 07:45:03;;;;;;;41.92;17.75;;;6.20;99.90;;;;;;5129598;27;20023;-63
2022/01/27 07:47:29;;;;;;;34.03;15.90;;;6.30;99.90;;;;;;5134267;27;20035;-64
2022/01/27 07:50:18;;;;;;;40.28;17.55;;;6.30;99.90;;;;;;5134710;27;20093;-62
2022/01/27 07:52:44;;;;;;;43.40;19.20;;;6.50;99.90;;;;;;5134807;27;20371;-63
2022/01/27 07:55:10;;;;;;;48.10;17.42;;;6.50;99.90;;;;;;5102669;28;20040;-63
2022/01/27 07:57:37;;;;;;;39.60;15.50;;;6.60;99.90;;;;;;5114105;28;20061;-63
2022/01/27 08:00:07;;;;;;;38.33;16.02;;;6.60;99.90;;;;;;5114085;28;20433;-63
2022/01/27 08:02:32;;;;;;;35.63;15.95;;;6.70;99.90;;;;;;5131833;27;20110;-64
2022/01/27 08:04:58;;;;;;;39.40;15.27;;;6.70;99.90;;;;;;5121962;27;20114;-64
2022/01/27 08:07:24;;;;;;;44.33;16.17;;;6.80;99.90;;;;;;5095917;28;20047;-64
2022/01/27 08:09:49;;;;;;;47.50;17.55;;;6.90;99.90;;;;;;5113870;28;20032;-63
2022/01/27 08:12:15;;;;;;;38.65;16.15;;;6.90;99.90;;;;;;5113824;28;20043;-65
2022/01/27 08:14:41;;;;;;;47.53;18.17;;;7.00;99.90;;;;;;5123415;28;20043;-64
2022/01/27 08:17:07;;;;;;;38.17;15.82;;;6.90;99.90;;;;;;5131772;28;20035;-64
2022/01/27 08:19:33;;;;;;;38.65;13.63;;;6.90;99.90;;;;;;5096167;28;20044;-64
2022/01/27 08:21:58;;;;;;;36.47;15.15;;;7.00;99.90;;;;;;5092999;28;20119;-64
2022/01/27 08:24:24;;;;;;;39.35;16.15;;;7.10;99.90;;;;;;5100336;28;20047;-62
2022/01/27 08:26:53;;;;;;;39.78;15.73;;;7.00;99.90;;;;;;5113751;28;20035;-64
2022/01/27 08:29:25;;;;;;;37.78;14.98;;;7.00;99.90;;;;;;5107239;28;20043;-66
2022/01/27 08:32:01;;;;;;;38.10;14.45;;;7.10;99.90;;;;;;5075070;28;20306;-64
2022/01/27 08:34:38;;;;;;;36.05;14.18;;;7.10;99.90;;;;;;5096862;28;20082;-64
2022/01/27 08:37:10;;;;;;;35.50;15.20;;;7.10;99.90;;;;;;5096080;28;20036;-67
2022/01/27 08:39:37;;;;;;;36.85;14.93;;;7.10;99.90;;;;;;5096849;28;20050;-64
2022/01/27 08:42:04;;;;;;;37.47;14.30;;;7.10;99.90;;;;;;5079485;28;20074;-63
2022/01/27 08:44:29;;;;;;;33.83;14.40;;;7.20;99.90;;;;;;5104744;28;20051;-63
2022/01/27 08:46:55;;;;;;;34.40;14.15;;;7.20;99.90;;;;;;5099702;28;20035;-64
2022/01/27 08:49:24;;;;;;;35.08;14.35;;;7.20;99.90;;;;;;5099522;28;20077;-64
2022/01/27 08:51:50;;;;;;;34.70;13.32;;;7.20;99.90;;;;;;5114779;28;20345;-63
2022/01/27 08:54:16;;;;;;;35.75;13.40;;;7.10;99.90;;;;;;5084601;28;20460;-64
2022/01/27 08:56:42;;;;;;;38.55;13.30;;;7.10;99.90;;;;;;5099268;28;20046;-63
2022/01/27 08:59:08;;;;;;;48.90;14.43;;;7.20;99.90;;;;;;5117327;28;20429;-64
2022/01/27 09:01:34;;;;;;;37.25;12.73;;;7.20;99.90;;;;;;5116955;28;20543;-63
2022/01/27 09:04:00;;;;;;;35.17;12.68;;;7.20;99.90;;;;;;5114132;28;20334;-64
2022/01/27 09:06:28;;;;;;;35.15;13.32;;;7.30;99.90;;;;;;5096992;28;20449;-65
2022/01/27 09:08:55;;;;;;;31.58;12.23;;;7.30;99.90;;;;;;5079022;28;20101;-63
2022/01/27 09:11:21;;;;;;;31.92;11.65;;;7.30;99.90;;;;;;5096627;28;20051;-63
2022/01/27 09:13:47;;;;;;;28.08;11.48;;;7.40;99.90;;;;;;5097774;28;20086;-64
2022/01/27 09:16:13;;;;;;;29.90;11.30;;;7.40;99.90;;;;;;5096467;28;20464;-65
2022/01/27 09:18:38;;;;;;;25.40;10.93;;;7.50;99.90;;;;;;5093709;28;20059;-65
2022/01/27 09:21:10;;;;;;;34.17;11.88;;;7.60;99.90;;;;;;5116694;28;20094;-64
2022/01/27 09:23:36;;;;;;;32.17;11.05;;;7.60;99.90;;;;;;5098844;27;20036;-66
2022/01/27 09:26:05;;;;;;;27.48;10.45;;;7.60;99.90;;;;;;5118773;27;20065;-65
2022/01/27 09:28:32;;;;;;;39.65;11.40;;;7.60;99.90;;;;;;5137590;27;20047;-66
2022/01/27 09:30:57;;;;;;;30.35;11.30;;;7.60;99.90;;;;;;5136811;27;20039;-64
2022/01/27 09:33:23;;;;;;;31.58;10.82;;;7.60;99.90;;;;;;5137589;27;20046;-64
2022/01/27 09:35:49;;;;;;;26.65;10.38;;;7.70;99.90;;;;;;5100616;28;20143;-64
2022/01/27 09:38:16;;;;;;;24.35;9.98;;;7.70;99.90;;;;;;5116875;28;20039;-65
2022/01/27 09:40:46;;;;;;;32.97;10.23;;;7.80;99.90;;;;;;5116210;28;20059;-64
2022/01/27 09:43:12;;;;;;;25.48;8.57;;;7.80;99.90;;;;;;5098019;28;20083;-65
2022/01/27 09:45:39;;;;;;;26.98;9.95;;;7.90;99.90;;;;;;5114928;27;20547;-62
2022/01/27 09:48:13;;;;;;;24.02;8.95;;;7.90;99.90;;;;;;5119249;27;20072;-63
2022/01/27 09:50:59;;;;;;;23.45;8.20;;;7.90;99.90;;;;;;5137062;27;20135;-63
2022/01/27 09:53:25;;;;;;;27.38;8.77;;;7.90;99.90;;;;;;5121545;27;20036;-64
2022/01/27 09:55:50;;;;;;;28.17;8.55;;;8.00;99.90;;;;;;5134721;27;20035;-62
2022/01/27 09:58:16;;;;;;;21.63;8.80;;;8.00;99.90;;;;;;5136981;27;20039;-63
2022/01/27 10:00:42;;;;;;;20.75;7.95;;;8.00;99.90;;;;;;5136601;27;20043;-62
2022/01/27 10:03:10;;;;;;;23.17;7.22;;;8.00;99.90;;;;;;5137052;27;20087;-65
2022/01/27 10:05:36;;;;;;;31.55;8.25;;;7.90;99.90;;;;;;5136215;27;20078;-63
2022/01/27 10:08:03;;;;;;;24.90;8.15;;;7.90;99.90;;;;;;5118385;27;20467;-63
2022/01/27 10:10:35;;;;;;;21.40;7.07;;;7.90;99.90;;;;;;5136394;27;20034;-63
2022/01/27 10:13:03;;;;;;;29.33;8.50;;;7.90;99.90;;;;;;5136527;27;20042;-63
2022/01/27 10:15:34;;;;;;;28.17;8.38;;;7.90;99.90;;;;;;5117873;27;20039;-63
2022/01/27 10:18:09;;;;;;;20.35;6.75;;;7.90;99.90;;;;;;5136470;27;20131;-63
2022/01/27 10:20:43;;;;;;;20.20;7.25;;;8.00;99.90;;;;;;5136283;27;20126;-63
2022/01/27 10:23:09;;;;;;;27.92;7.80;;;8.00;99.90;;;;;;5136796;27;20043;-64
2022/01/27 10:25:35;;;;;;;25.45;8.20;;;8.00;99.90;;;;;;5118000;27;20376;-63
2022/01/27 10:28:11;;;;;;;22.35;8.13;;;8.10;99.90;;;;;;5136657;27;20042;-63
2022/01/27 10:30:38;;;;;;;22.00;7.00;;;8.10;99.90;;;;;;5136038;27;20047;-64
2022/01/27 10:33:05;;;;;;;24.20;7.93;;;8.10;99.90;;;;;;5118058;27;20055;-63
2022/01/27 10:35:31;;;;;;;26.92;7.85;;;8.10;99.90;;;;;;5135075;27;20043;-63
2022/01/27 10:38:05;;;;;;;26.27;7.65;;;8.10;99.90;;;;;;5135683;27;20046;-63
2022/01/27 10:40:37;;;;;;;29.30;8.77;;;8.10;99.90;;;;;;5135919;27;20070;-63
2022/01/27 10:43:14;;;;;;;32.97;8.73;;;8.10;99.90;;;;;;5118087;27;20069;-63
2022/01/27 10:46:00;;;;;;;26.33;7.22;;;8.20;99.90;;;;;;5135009;27;20027;-64
2022/01/27 10:48:31;;;;;;;25.88;7.75;;;8.20;99.90;;;;;;5117809;27;20058;-63
2022/01/27 10:51:12;;;;;;;19.95;7.82;;;8.20;99.90;;;;;;5135544;27;20035;-63
2022/01/27 10:53:48;;;;;;;23.63;6.95;;;8.20;99.90;;;;;;5118540;27;20096;-65
2022/01/27 10:56:20;;;;;;;20.35;7.20;;;8.30;99.90;;;;;;5112635;28;20051;-65
2022/01/27 10:58:46;;;;;;;21.65;6.97;;;8.20;99.90;;;;;;5115443;28;20047;-63
2022/01/27 11:01:21;;;;;;;18.80;6.90;;;8.10;99.90;;;;;;5114718;28;20096;-65
2022/01/27 11:03:51;;;;;;;26.17;8.20;;;8.20;99.90;;;;;;5115423;28;20048;-64
2022/01/27 11:06:18;;;;;;;24.75;7.82;;;8.20;99.90;;;;;;5135680;27;20354;-64
2022/01/27 11:08:48;;;;;;;26.23;7.47;;;8.20;99.90;;;;;;5136040;27;20026;-63
2022/01/27 11:11:14;;;;;;;20.02;7.00;;;8.30;99.90;;;;;;5135597;27;20049;-63
2022/01/27 11:13:43;;;;;;;16.05;6.07;;;8.30;99.90;;;;;;5135378;27;20035;-64
2022/01/27 11:16:18;;;;;;;23.55;7.03;;;8.40;99.90;;;;;;5091027;27;20955;-64
2022/01/27 11:18:47;;;;;;;19.02;6.15;;;8.50;99.90;;;;;;5091245;28;20051;-65
2022/01/27 11:21:29;;;;;;;20.10;7.00;;;8.60;99.90;;;;;;5090683;28;20051;-66
2022/01/27 11:24:04;;;;;;;19.35;6.40;;;8.70;99.90;;;;;;5090653;28;20045;-64
2022/01/27 11:26:31;;;;;;;21.65;6.70;;;8.80;99.90;;;;;;5081960;28;20119;-63
2022/01/27 11:28:58;;;;;;;19.10;6.32;;;8.90;99.90;;;;;;5089665;28;20373;-64
2022/01/27 11:32:07;;;;;;;20.52;6.88;;;9.10;99.90;;;;;;5090371;28;20066;-64
2022/01/27 11:34:52;;;;;;;17.27;5.82;;;9.10;99.90;;;;;;5090577;28;20040;-65
2022/01/27 11:37:32;;;;;;;24.23;6.20;;;9.20;99.90;;;;;;5090837;28;20111;-64
2022/01/27 11:40:09;;;;;;;20.60;4.90;;;9.20;99.90;;;;;;5090468;28;20130;-63
2022/01/27 11:42:35;;;;;;;20.60;6.00;;;9.20;99.90;;;;;;5090843;28;20040;-62
2022/01/27 11:45:43;;;;;;;18.25;5.68;;;9.30;99.90;;;;;;5090367;28;20040;-63
2022/01/27 11:48:11;;;;;;;22.58;5.90;;;9.20;99.90;;;;;;5048372;28;20172;-62
2022/01/27 11:50:47;;;;;;;23.52;5.65;;;9.20;99.90;;;;;;5084281;28;20477;-64
2022/01/27 11:53:36;;;;;;;17.55;5.43;;;9.20;99.90;;;;;;5090308;28;20032;-65
2022/01/27 11:56:08;;;;;;;13.50;4.85;;;9.10;99.90;;;;;;5090169;28;20044;-63
2022/01/27 11:58:52;;;;;;;19.50;5.10;;;9.10;99.90;;;;;;5089795;28;20044;-64
2022/01/27 12:01:28;;;;;;;13.82;3.80;;;9.10;99.90;;;;;;5069725;28;20083;-63
2022/01/27 12:04:04;;;;;;;15.05;4.30;;;9.20;99.90;;;;;;5071401;28;20036;-64
2022/01/27 12:06:41;;;;;;;16.77;4.80;;;9.20;99.90;;;;;;5090208;28;20070;-63
2022/01/27 12:09:21;;;;;;;14.80;3.72;;;9.20;99.90;;;;;;5089851;28;20461;-63
2022/01/27 12:11:55;;;;;;;18.05;4.78;;;9.20;99.90;;;;;;5089849;28;20109;-63
2022/01/27 12:14:26;;;;;;;19.10;4.28;;;9.30;99.90;;;;;;5089733;28;20125;-63
2022/01/27 12:17:07;;;;;;;18.95;5.15;;;9.30;99.90;;;;;;5090152;28;20414;-64
2022/01/27 12:19:53;;;;;;;16.13;3.92;;;9.30;99.90;;;;;;5089639;28;20055;-64
2022/01/27 12:22:23;;;;;;;18.42;4.05;;;9.30;99.90;;;;;;5090169;28;20051;-63
2022/01/27 12:24:59;;;;;;;15.00;3.70;;;9.30;99.90;;;;;;5089688;28;20047;-63
2022/01/27 12:27:27;;;;;;;14.70;3.63;;;9.30;99.90;;;;;;5077570;28;20036;-64
2022/01/27 12:29:55;;;;;;;13.40;4.30;;;9.20;99.90;;;;;;5076854;28;20055;-64
2022/01/27 12:32:26;;;;;;;12.20;3.65;;;9.20;99.90;;;;;;5076087;28;20147;-62
2022/01/27 12:35:04;;;;;;;19.50;4.25;;;9.20;99.90;;;;;;5075864;28;20047;-64
2022/01/27 12:37:34;;;;;;;15.38;4.18;;;9.20;99.90;;;;;;5075787;28;20393;-63
2022/01/27 12:40:04;;;;;;;18.00;3.83;;;9.20;99.90;;;;;;5075725;28;20051;-62
2022/01/27 12:42:35;;;;;;;15.15;3.90;;;9.20;99.90;;;;;;5075134;28;20055;-62
2022/01/27 12:45:07;;;;;;;17.20;4.07;;;9.20;99.90;;;;;;5075506;28;20414;-63
2022/01/27 12:47:38;;;;;;;15.52;3.38;;;9.20;99.90;;;;;;5075943;28;20101;-63
2022/01/27 12:50:13;;;;;;;14.20;4.15;;;9.20;99.90;;;;;;5075589;28;20048;-63
2022/01/27 12:52:43;;;;;;;18.30;4.05;;;9.20;99.90;;;;;;5075974;28;20071;-63
2022/01/27 12:55:25;;;;;;;17.67;3.35;;;9.30;99.90;;;;;;5075357;28;20148;-63
2022/01/27 12:58:03;;;;;;;14.38;3.53;;;9.30;99.90;;;;;;5075559;28;20408;-63
2022/01/27 13:00:35;;;;;;;12.07;3.58;;;9.30;99.90;;;;;;5075377;28;20040;-63
2022/01/27 13:03:01;;;;;;;18.08;4.18;;;9.30;99.90;;;;;;5075568;28;20068;-63
2022/01/27 13:05:38;;;;;;;15.85;4.50;;;9.30;99.90;;;;;;5075230;28;20070;-64
2022/01/27 13:08:06;;;;;;;20.88;3.78;;;9.30;99.90;;;;;;5075546;28;20072;-63
2022/01/27 13:10:32;;;;;;;18.42;4.10;;;9.30;99.90;;;;;;5075228;28;20040;-63
2022/01/27 13:13:11;;;;;;;15.68;3.80;;;9.30;99.90;;;;;;5075197;28;20032;-64
2022/01/27 13:15:37;;;;;;;15.35;3.47;;;9.30;99.90;;;;;;5064112;28;20045;-64
2022/01/27 13:18:48;;;;;;;13.90;3.03;;;9.20;99.90;;;;;;5071145;28;20576;-64
2022/01/27 13:21:04;;;;;;;14.27;3.17;;;9.20;99.90;;;;;;5054440;28;20186;-63
2022/01/27 13:23:45;;;;;;;21.63;3.92;;;9.20;99.90;;;;;;5055112;28;20053;-63
2022/01/27 13:26:15;;;;;;;16.42;3.03;;;9.10;99.90;;;;;;5074898;28;20056;-63
2022/01/27 13:28:42;;;;;;;13.73;2.92;;;9.20;99.90;;;;;;5073898;28;20119;-63